CheckWX is a tool to help pilots better visualize weather data.  It is not intended as a substitute for an official pre-flight weather briefing.

07:24:55 UTC

VTBO TAF
Trat Airport
Thailand
TAF VTBO 170500Z 1706/1806 22005KT 7000 SCT020 BKN100 TEMPO 1710/1715 VRB12KT 3000 TSRA FEW018CB SCT020 BKN080 TEMPO 1722/1803 VRB12KT 5000 TSRA FEW018CB SCT020 BKN080

Jun-17@
06:00 UTC

Jun-17 @ 06:00 UTC

Jun-18@
06:00 UTC

Jun-18 @ 06:00 UTC

TAF VTBO 170500Z 1706/1806 22005KT 7000 SCT020 BKN100
Wind
  • 220° at 5 KTS
Cloud Levels
  • Scattered at 2,000' AGL
  • Broken at 10,000' AGL

Jun-17@
10:00 UTC

Jun-17 @ 10:00 UTC

Jun-17@
15:00 UTC

Jun-17 @ 15:00 UTC

TEMPO 1710/1715 VRB12KT 3000 TSRA FEW018CB SCT020 BKN080

Temporary

Temporary Changes expected for less than half the time period

Wind
  • Variable at 12 KTS
Conditions
Thunderstorm, Rain
Cloud Levels
  • Few at 1,800' AGL
  • Scattered at 2,000' AGL
  • Broken at 8,000' AGL

Jun-17@
22:00 UTC

Jun-17 @ 22:00 UTC

Jun-18@
03:00 UTC

Jun-18 @ 03:00 UTC

TEMPO 1722/1803 VRB12KT 5000 TSRA FEW018CB SCT020 BKN080

Temporary

Temporary Changes expected for less than half the time period

Wind
  • Variable at 12 KTS
Conditions
Thunderstorm, Rain
Cloud Levels
  • Few at 1,800' AGL
  • Scattered at 2,000' AGL
  • Broken at 8,000' AGL